createdAt,value
2023-05-09T00:00:06.632Z,14.88
2023-05-09T00:02:35.098Z,14.66
2023-05-09T00:05:04.060Z,14.79
2023-05-09T00:07:32.689Z,14.77
2023-05-09T00:10:02.374Z,14.82
2023-05-09T00:12:30.474Z,14.85
2023-05-09T00:14:58.460Z,14.82
2023-05-09T00:17:26.846Z,14.85
2023-05-09T00:19:55.471Z,14.80
2023-05-09T00:22:23.870Z,14.72
2023-05-09T00:24:52.194Z,14.61
2023-05-09T00:27:34.107Z,14.59
2023-05-09T00:30:02.706Z,14.60
2023-05-09T00:32:30.832Z,14.57
2023-05-09T00:34:59.554Z,14.50
2023-05-09T00:37:29.837Z,14.45
2023-05-09T00:39:57.927Z,14.35
2023-05-09T00:42:27.332Z,14.30
2023-05-09T00:44:55.249Z,14.31
2023-05-09T00:47:25.054Z,14.37
2023-05-09T00:49:55.098Z,14.37
2023-05-09T00:52:25.838Z,14.42
2023-05-09T00:54:54.951Z,14.37
2023-05-09T00:57:23.322Z,14.37
2023-05-09T00:59:52.692Z,14.35
2023-05-09T01:02:21.072Z,14.29
2023-05-09T01:04:50.077Z,14.25
2023-05-09T01:07:24.208Z,14.08
2023-05-09T01:09:58.098Z,14.09
2023-05-09T01:12:36.066Z,14.09
2023-05-09T01:15:13.472Z,14.08
2023-05-09T01:17:53.063Z,14.01
2023-05-09T01:20:29.153Z,13.94
2023-05-09T01:23:13.680Z,13.95
2023-05-09T01:26:03.494Z,13.76
2023-05-09T01:29:08.343Z,13.74
2023-05-09T01:31:41.919Z,13.76
2023-05-09T01:34:12.535Z,13.66
2023-05-09T01:36:43.590Z,13.65
2023-05-09T01:39:14.623Z,13.57
2023-05-09T01:41:42.514Z,13.53
2023-05-09T01:44:13.453Z,13.51
2023-05-09T01:46:45.176Z,13.57
2023-05-09T01:49:14.808Z,13.43
2023-05-09T01:51:43.789Z,13.45
2023-05-09T01:54:13.721Z,13.47
2023-05-09T01:56:43.389Z,13.44
2023-05-09T01:59:16.272Z,13.44
2023-05-09T02:01:46.909Z,13.34
2023-05-09T02:04:17.253Z,13.30
2023-05-09T02:06:49.515Z,13.27
2023-05-09T02:09:18.947Z,13.21
2023-05-09T02:11:47.627Z,13.17
2023-05-09T02:14:16.061Z,13.11
2023-05-09T02:16:45.616Z,13.17
2023-05-09T02:19:13.618Z,13.16
2023-05-09T02:21:42.469Z,13.10
2023-05-09T02:24:12.492Z,13.03
2023-05-09T02:26:41.539Z,13.09
2023-05-09T02:29:11.737Z,13.03
2023-05-09T02:31:42.828Z,13.09
2023-05-09T02:34:16.410Z,13.09
2023-05-09T02:36:44.540Z,13.05
2023-05-09T02:39:13.276Z,13.02
2023-05-09T02:41:42.568Z,13.04
2023-05-09T02:44:10.983Z,12.97
2023-05-09T02:46:43.878Z,12.94
2023-05-09T02:49:23.046Z,12.93
2023-05-09T02:52:02.110Z,12.93
2023-05-09T02:54:30.512Z,12.87
2023-05-09T02:56:59.307Z,12.93
2023-05-09T02:59:27.921Z,12.86
2023-05-09T03:01:59.107Z,12.78
2023-05-09T03:04:28.706Z,12.59
2023-05-09T03:06:59.849Z,12.59
2023-05-09T03:09:31.102Z,12.57
2023-05-09T03:11:59.513Z,12.54
2023-05-09T03:14:29.141Z,12.53
2023-05-09T03:16:57.209Z,12.44
2023-05-09T03:19:26.297Z,12.47
2023-05-09T03:21:56.391Z,12.40
2023-05-09T03:24:24.730Z,12.32
2023-05-09T03:26:53.247Z,12.29
2023-05-09T03:29:21.337Z,12.26
2023-05-09T03:31:49.797Z,12.16
2023-05-09T03:34:18.099Z,12.09
2023-05-09T03:36:46.678Z,12.00
2023-05-09T03:39:22.150Z,11.91
2023-05-09T03:41:50.313Z,11.95
2023-05-09T03:44:18.255Z,11.89
2023-05-09T03:46:53.916Z,11.85
2023-05-09T03:49:24.878Z,11.80
2023-05-09T03:51:53.022Z,11.76
2023-05-09T03:54:24.508Z,11.73
2023-05-09T03:56:52.646Z,11.78
2023-05-09T03:59:20.863Z,11.74
2023-05-09T04:01:55.186Z,11.68
2023-05-09T04:04:23.260Z,11.59
2023-05-09T04:06:51.659Z,11.59
2023-05-09T04:09:19.928Z,11.59
2023-05-09T04:11:50.089Z,11.65
2023-05-09T04:14:18.301Z,11.72
2023-05-09T04:16:49.401Z,11.74
2023-05-09T04:19:20.764Z,11.70
2023-05-09T04:21:49.074Z,11.78
2023-05-09T04:24:17.710Z,11.82
2023-05-09T04:26:50.160Z,11.79
2023-05-09T04:29:18.434Z,11.72
2023-05-09T04:31:48.710Z,11.66
2023-05-09T04:34:16.795Z,11.65
2023-05-09T04:36:45.047Z,11.64
2023-05-09T04:39:15.230Z,11.59
2023-05-09T04:41:44.749Z,11.59
2023-05-09T04:44:14.181Z,11.55
2023-05-09T04:46:42.144Z,11.55
2023-05-09T04:49:10.294Z,11.63
2023-05-09T04:51:38.184Z,11.66
2023-05-09T04:54:06.823Z,11.75
2023-05-09T04:56:34.985Z,11.81
2023-05-09T04:59:02.993Z,11.83
2023-05-09T05:01:32.607Z,11.90
2023-05-09T05:04:02.313Z,11.82
2023-05-09T05:06:31.908Z,11.86
2023-05-09T05:08:59.954Z,11.92
2023-05-09T05:11:27.875Z,11.96
2023-05-09T05:13:56.303Z,12.02
2023-05-09T05:16:24.451Z,11.98
2023-05-09T05:18:55.950Z,12.04
2023-05-09T05:21:24.136Z,11.90
2023-05-09T05:23:52.166Z,11.99
2023-05-09T05:26:20.300Z,12.10
2023-05-09T05:28:48.397Z,12.21
2023-05-09T05:31:16.485Z,12.35
2023-05-09T05:33:45.761Z,12.37
2023-05-09T05:36:15.097Z,12.42
2023-05-09T05:38:43.021Z,12.55
2023-05-09T05:41:12.277Z,12.54
2023-05-09T05:43:40.637Z,12.59
2023-05-09T05:46:08.608Z,12.64
2023-05-09T05:48:36.669Z,12.66
2023-05-09T05:51:04.811Z,12.71
2023-05-09T05:53:34.512Z,12.79
2023-05-09T05:56:10.640Z,13.00
2023-05-09T05:58:40.967Z,13.21
2023-05-09T06:01:12.402Z,13.25
2023-05-09T06:03:40.490Z,13.23
2023-05-09T06:06:09.762Z,13.17
2023-05-09T06:08:39.064Z,13.14
2023-05-09T06:11:07.663Z,13.24
2023-05-09T06:13:35.584Z,13.28
2023-05-09T06:16:18.703Z,13.37
2023-05-09T06:18:48.178Z,13.39
2023-05-09T06:21:18.935Z,13.51
2023-05-09T06:24:05.941Z,13.66
2023-05-09T06:26:36.669Z,13.73
2023-05-09T06:29:06.084Z,13.59
2023-05-09T06:31:38.482Z,13.67
2023-05-09T06:34:06.757Z,13.73
2023-05-09T06:36:34.770Z,13.66
2023-05-09T06:39:04.346Z,14.01
2023-05-09T06:41:32.301Z,14.57
2023-05-09T06:44:02.510Z,15.21
2023-05-09T06:46:30.555Z,16.82
2023-05-09T06:48:58.647Z,18.39
2023-05-09T06:51:27.152Z,19.92
2023-05-09T06:53:55.053Z,21.04
2023-05-09T06:56:25.506Z,21.23
2023-05-09T06:58:54.159Z,21.28
2023-05-09T07:01:24.603Z,22.04
2023-05-09T07:03:52.652Z,21.98
2023-05-09T07:06:20.734Z,22.49
2023-05-09T07:08:48.855Z,23.00
2023-05-09T07:11:16.810Z,23.26
2023-05-09T07:13:49.387Z,23.81
2023-05-09T07:16:18.501Z,24.35
2023-05-09T07:18:46.540Z,24.71
2023-05-09T07:21:14.499Z,25.19
2023-05-09T07:23:42.711Z,25.57
2023-05-09T07:26:10.573Z,25.64
2023-05-09T07:28:39.057Z,25.97
2023-05-09T07:31:09.772Z,26.28
2023-05-09T07:33:37.737Z,26.66
2023-05-09T07:36:05.924Z,26.56
2023-05-09T07:38:33.867Z,26.95
2023-05-09T07:41:01.881Z,26.55
2023-05-09T07:43:30.039Z,27.10
2023-05-09T07:45:58.270Z,27.83
2023-05-09T07:48:27.706Z,28.57
2023-05-09T07:50:55.584Z,28.27
2023-05-09T07:53:23.505Z,27.76
2023-05-09T07:55:51.367Z,27.34
2023-05-09T07:58:19.461Z,27.90
2023-05-09T08:00:47.689Z,28.53
2023-05-09T08:03:15.795Z,28.49
2023-05-09T08:05:45.283Z,28.37
2023-05-09T08:08:13.265Z,29.08
2023-05-09T08:10:41.259Z,29.82
2023-05-09T08:13:09.953Z,30.03
2023-05-09T08:15:38.038Z,30.06
2023-05-09T08:18:06.463Z,29.91
2023-05-09T08:20:34.685Z,29.94
2023-05-09T08:23:04.209Z,29.09
2023-05-09T08:25:32.563Z,29.08
2023-05-09T08:28:00.816Z,29.24
2023-05-09T08:30:29.621Z,29.92
2023-05-09T08:32:57.521Z,30.12
2023-05-09T08:35:25.414Z,30.42
2023-05-09T08:37:53.475Z,30.42
2023-05-09T08:40:22.840Z,30.33
2023-05-09T08:42:51.826Z,31.30
2023-05-09T08:45:27.463Z,30.08
2023-05-09T08:47:55.891Z,29.52
2023-05-09T08:50:24.485Z,29.38
2023-05-09T08:52:53.024Z,29.95
2023-05-09T08:55:23.033Z,30.02
2023-05-09T08:57:51.172Z,30.21
2023-05-09T09:00:21.148Z,30.57
2023-05-09T09:02:50.293Z,30.32
2023-05-09T09:05:39.395Z,30.55
2023-05-09T09:08:08.791Z,30.91
2023-05-09T09:10:44.743Z,31.40
2023-05-09T09:13:14.340Z,32.00
2023-05-09T09:15:45.088Z,31.26
2023-05-09T09:18:17.435Z,30.95
2023-05-09T09:20:51.309Z,30.43
2023-05-09T09:23:21.134Z,29.85
2023-05-09T09:25:50.423Z,29.59
2023-05-09T09:28:18.919Z,30.23
2023-05-09T09:30:49.014Z,29.66
2023-05-09T09:33:23.816Z,29.56
2023-05-09T09:35:54.736Z,29.61
2023-05-09T09:38:24.516Z,28.44
2023-05-09T09:40:58.051Z,27.56
2023-05-09T09:43:30.143Z,27.54
2023-05-09T09:45:58.636Z,27.39
2023-05-09T09:48:26.914Z,26.51
2023-05-09T09:50:57.013Z,26.34
2023-05-09T09:53:30.466Z,25.83
2023-05-09T09:56:00.277Z,25.37
2023-05-09T09:58:28.222Z,24.94
2023-05-09T10:01:09.378Z,25.03
2023-05-09T10:03:39.308Z,25.00
2023-05-09T10:06:11.524Z,25.44
2023-05-09T10:08:39.559Z,25.42
2023-05-09T10:11:10.190Z,25.26
2023-05-09T10:13:39.604Z,24.65
2023-05-09T10:16:10.114Z,25.10
2023-05-09T10:18:40.928Z,25.41
2023-05-09T10:21:12.989Z,25.34
2023-05-09T10:23:44.538Z,25.14
2023-05-09T10:26:19.453Z,24.97
2023-05-09T10:28:49.985Z,24.55
2023-05-09T10:31:23.828Z,24.52
2023-05-09T10:33:52.691Z,24.74
2023-05-09T10:36:23.300Z,24.64
2023-05-09T10:38:52.516Z,24.64
2023-05-09T10:41:23.886Z,24.59
2023-05-09T10:43:52.461Z,24.51
2023-05-09T10:46:21.170Z,24.00
2023-05-09T10:48:50.088Z,24.02
2023-05-09T10:51:18.733Z,23.87
2023-05-09T10:53:49.365Z,24.18
2023-05-09T10:56:27.623Z,23.98
2023-05-09T10:58:55.831Z,23.86
2023-05-09T11:01:33.013Z,23.78
2023-05-09T11:04:01.646Z,23.98
2023-05-09T11:06:51.532Z,24.05
2023-05-09T11:09:32.607Z,23.93
2023-05-09T11:12:10.210Z,23.94
2023-05-09T11:14:44.448Z,23.71
2023-05-09T11:17:13.858Z,23.89
2023-05-09T11:20:05.508Z,23.71
2023-05-09T11:22:41.505Z,23.39
2023-05-09T11:25:11.037Z,23.35
2023-05-09T11:27:45.787Z,23.32
2023-05-09T11:30:15.589Z,23.31
2023-05-09T11:32:46.842Z,22.97
2023-05-09T11:35:17.790Z,23.28
2023-05-09T11:37:48.253Z,23.10
2023-05-09T11:40:18.592Z,23.12
2023-05-09T11:42:50.721Z,23.42
2023-05-09T11:45:19.339Z,23.52
2023-05-09T11:47:48.143Z,23.39
2023-05-09T11:50:18.460Z,23.18
2023-05-09T11:52:47.355Z,23.29
2023-05-09T11:55:16.984Z,23.17
2023-05-09T11:57:49.188Z,23.25
2023-05-09T12:00:18.958Z,23.21
2023-05-09T12:02:49.259Z,23.28
2023-05-09T12:05:19.177Z,23.14
2023-05-09T12:07:47.817Z,23.08
2023-05-09T12:10:18.320Z,23.16
2023-05-09T12:12:49.859Z,23.26
2023-05-09T12:15:19.216Z,23.22
2023-05-09T12:17:49.753Z,23.22
2023-05-09T12:20:19.937Z,23.18
2023-05-09T12:22:54.158Z,23.13
2023-05-09T12:25:23.934Z,23.31
2023-05-09T12:27:54.663Z,23.10
2023-05-09T12:30:23.161Z,23.17
2023-05-09T12:32:51.504Z,23.26
2023-05-09T12:35:23.392Z,23.31
2023-05-09T12:37:57.949Z,23.39
2023-05-09T12:40:26.364Z,23.40
2023-05-09T12:43:02.704Z,23.27
2023-05-09T12:45:33.681Z,23.41
2023-05-09T12:48:02.536Z,23.31
2023-05-09T12:50:36.018Z,23.14
2023-05-09T12:53:05.284Z,23.21
2023-05-09T12:55:40.707Z,23.38
2023-05-09T12:58:09.985Z,23.38
2023-05-09T13:00:44.786Z,23.25
2023-05-09T13:03:26.008Z,23.18
2023-05-09T13:06:01.551Z,23.22
2023-05-09T13:08:30.676Z,23.21
2023-05-09T13:11:12.185Z,23.17
2023-05-09T13:13:45.493Z,23.29
2023-05-09T13:16:15.006Z,23.23
2023-05-09T13:18:45.444Z,23.35
2023-05-09T13:21:13.356Z,23.26
2023-05-09T13:23:42.743Z,23.15
2023-05-09T13:26:11.544Z,23.25
2023-05-09T13:28:39.528Z,23.35
2023-05-09T13:31:08.930Z,23.47
2023-05-09T13:33:37.033Z,23.56
2023-05-09T13:36:06.296Z,23.61
2023-05-09T13:38:38.708Z,23.22
2023-05-09T13:41:06.760Z,23.04
2023-05-09T13:43:35.307Z,23.32
2023-05-09T13:46:04.036Z,23.23
2023-05-09T13:48:33.621Z,23.21
2023-05-09T13:51:07.296Z,23.07
2023-05-09T13:53:43.614Z,22.98
2023-05-09T13:56:15.572Z,23.08
2023-05-09T13:58:44.146Z,23.29
2023-05-09T14:01:12.232Z,23.28
2023-05-09T14:03:42.245Z,23.21
2023-05-09T14:06:12.451Z,23.09
2023-05-09T14:08:41.690Z,23.17
2023-05-09T14:11:12.857Z,23.20
2023-05-09T14:13:41.125Z,23.26
2023-05-09T14:16:09.855Z,23.37
2023-05-09T14:18:37.862Z,23.21
2023-05-09T14:21:08.732Z,23.29
2023-05-09T14:23:36.715Z,23.43
2023-05-09T14:26:04.814Z,23.46
2023-05-09T14:28:32.965Z,23.51
2023-05-09T14:31:01.594Z,23.58
2023-05-09T14:33:29.816Z,23.31
2023-05-09T14:35:57.979Z,23.47
2023-05-09T14:38:27.482Z,23.53
2023-05-09T14:40:56.003Z,23.33
2023-05-09T14:43:24.466Z,23.16
2023-05-09T14:45:52.555Z,23.44
2023-05-09T14:48:20.554Z,23.51
2023-05-09T14:50:49.911Z,23.32
2023-05-09T14:53:17.837Z,23.38
2023-05-09T14:55:47.341Z,23.48
2023-05-09T14:58:16.185Z,23.65
2023-05-09T15:00:44.234Z,23.49
2023-05-09T15:03:12.411Z,23.51
2023-05-09T15:05:43.087Z,23.64
2023-05-09T15:08:12.635Z,23.65
2023-05-09T15:10:40.806Z,23.61
2023-05-09T15:13:11.314Z,23.48
2023-05-09T15:15:40.592Z,23.39
2023-05-09T15:18:11.599Z,23.40
2023-05-09T15:20:39.723Z,23.29
2023-05-09T15:23:08.695Z,23.17
2023-05-09T15:25:36.721Z,23.19
2023-05-09T15:28:04.624Z,23.16
2023-05-09T15:30:35.307Z,23.31
2023-05-09T15:33:04.795Z,23.25
2023-05-09T15:35:32.827Z,23.16
2023-05-09T15:38:00.851Z,22.98
2023-05-09T15:40:29.194Z,22.94
2023-05-09T15:43:00.106Z,22.86
2023-05-09T15:45:28.851Z,22.90
2023-05-09T15:47:58.582Z,22.97
2023-05-09T15:50:26.740Z,23.02
2023-05-09T15:52:54.762Z,22.90
2023-05-09T15:55:23.312Z,22.93
2023-05-09T15:57:52.561Z,22.88
2023-05-09T16:00:20.882Z,22.97
2023-05-09T16:02:48.957Z,22.94
2023-05-09T16:05:19.331Z,22.84
2023-05-09T16:07:50.221Z,22.76
2023-05-09T16:10:18.657Z,22.65
2023-05-09T16:12:46.619Z,22.61
2023-05-09T16:15:14.734Z,22.56
2023-05-09T16:17:43.558Z,22.67
2023-05-09T16:20:14.982Z,22.66
2023-05-09T16:22:44.616Z,22.58
2023-05-09T16:25:13.979Z,22.60
2023-05-09T16:27:42.269Z,22.56
2023-05-09T16:30:12.458Z,22.60
2023-05-09T16:32:40.611Z,22.58
2023-05-09T16:35:09.559Z,22.36
2023-05-09T16:37:37.949Z,22.37
2023-05-09T16:40:08.594Z,22.28
2023-05-09T16:42:36.846Z,22.35
2023-05-09T16:45:05.684Z,22.32
2023-05-09T16:47:33.834Z,22.31
2023-05-09T16:50:01.795Z,22.22
2023-05-09T16:52:30.569Z,22.24
2023-05-09T16:54:59.570Z,22.30
2023-05-09T16:57:28.902Z,22.25
2023-05-09T16:59:56.995Z,22.35
2023-05-09T17:02:25.188Z,22.34
2023-05-09T17:04:53.291Z,22.20
2023-05-09T17:07:21.585Z,21.94
2023-05-09T17:09:49.849Z,21.96
2023-05-09T17:12:18.580Z,21.94
2023-05-09T17:14:49.231Z,21.87
2023-05-09T17:17:18.732Z,21.86
2023-05-09T17:19:47.476Z,21.73
2023-05-09T17:22:15.754Z,21.63
2023-05-09T17:24:44.052Z,21.73
2023-05-09T17:27:11.980Z,21.51
2023-05-09T17:29:40.201Z,21.53
2023-05-09T17:32:09.552Z,21.45
2023-05-09T17:34:39.196Z,21.33
2023-05-09T17:37:09.172Z,21.22
2023-05-09T17:39:37.748Z,21.26
2023-05-09T17:42:07.148Z,21.13
2023-05-09T17:44:35.616Z,21.14
2023-05-09T17:47:04.390Z,21.10
2023-05-09T17:49:34.203Z,21.13
2023-05-09T17:52:02.190Z,21.04
2023-05-09T17:54:30.207Z,20.98
2023-05-09T17:57:03.639Z,20.94
2023-05-09T17:59:32.338Z,20.90
2023-05-09T18:02:00.464Z,20.89
2023-05-09T18:04:30.814Z,20.86
2023-05-09T18:07:00.230Z,20.87
2023-05-09T18:09:30.339Z,20.79
2023-05-09T18:11:59.479Z,20.77
2023-05-09T18:14:29.705Z,20.65
2023-05-09T18:16:57.913Z,20.77
2023-05-09T18:19:27.485Z,20.81
2023-05-09T18:21:55.563Z,20.80
2023-05-09T18:24:25.352Z,20.64
2023-05-09T18:26:57.133Z,20.62
2023-05-09T18:29:25.503Z,20.49
2023-05-09T18:31:57.193Z,20.56
2023-05-09T18:34:25.625Z,20.51
2023-05-09T18:36:53.755Z,20.43
2023-05-09T18:39:21.618Z,20.47
2023-05-09T18:41:51.228Z,20.38
2023-05-09T18:44:19.163Z,20.23
2023-05-09T18:46:47.179Z,20.23
2023-05-09T18:49:18.317Z,20.27
2023-05-09T18:51:47.016Z,20.18
2023-05-09T18:54:15.288Z,20.04
2023-05-09T18:56:44.217Z,19.99
2023-05-09T18:59:16.378Z,20.07
2023-05-09T19:01:45.433Z,19.94
2023-05-09T19:04:14.135Z,19.85
2023-05-09T19:06:42.556Z,19.82
2023-05-09T19:09:11.680Z,19.80
2023-05-09T19:11:39.607Z,19.73
2023-05-09T19:14:07.545Z,19.69
2023-05-09T19:16:38.005Z,19.70
2023-05-09T19:19:06.028Z,19.58
2023-05-09T19:21:35.684Z,19.61
2023-05-09T19:24:04.691Z,19.59
2023-05-09T19:26:32.636Z,19.50
2023-05-09T19:29:04.210Z,19.42
2023-05-09T19:31:32.356Z,19.34
2023-05-09T19:34:02.089Z,19.28
2023-05-09T19:36:30.201Z,19.24
2023-05-09T19:38:58.074Z,19.23
2023-05-09T19:41:26.022Z,19.23
2023-05-09T19:43:54.921Z,19.18
2023-05-09T19:46:23.179Z,19.15
2023-05-09T19:48:51.262Z,19.13
2023-05-09T19:51:29.060Z,19.08
2023-05-09T19:53:57.141Z,19.06
2023-05-09T19:56:25.288Z,19.07
2023-05-09T19:58:53.161Z,18.95
2023-05-09T20:01:21.081Z,18.95
2023-05-09T20:03:50.685Z,18.92
2023-05-09T20:06:20.775Z,18.84
2023-05-09T20:08:51.376Z,18.71
2023-05-09T20:11:19.529Z,18.72
2023-05-09T20:13:47.417Z,18.70
2023-05-09T20:16:15.541Z,18.64
2023-05-09T20:18:44.186Z,18.62
2023-05-09T20:21:12.693Z,18.58
2023-05-09T20:23:42.135Z,18.55
2023-05-09T20:26:10.218Z,18.45
2023-05-09T20:28:38.205Z,18.45
2023-05-09T20:31:06.321Z,18.41
2023-05-09T20:33:35.111Z,18.39
2023-05-09T20:36:03.262Z,18.27
2023-05-09T20:38:31.274Z,18.24
2023-05-09T20:41:00.511Z,18.25
2023-05-09T20:43:28.876Z,18.15
2023-05-09T20:45:57.392Z,18.16
2023-05-09T20:48:25.987Z,18.05
2023-05-09T20:50:54.271Z,18.04
2023-05-09T20:53:26.421Z,18.05
2023-05-09T20:55:55.173Z,18.08
2023-05-09T20:58:24.696Z,17.92
2023-05-09T21:00:52.823Z,17.94
2023-05-09T21:03:21.229Z,17.90
2023-05-09T21:05:51.155Z,17.84
2023-05-09T21:08:19.408Z,17.85
2023-05-09T21:10:48.236Z,17.85
2023-05-09T21:13:16.432Z,17.73
2023-05-09T21:15:46.704Z,17.65
2023-05-09T21:18:16.853Z,17.71
2023-05-09T21:20:45.157Z,17.73
2023-05-09T21:23:15.107Z,17.72
2023-05-09T21:25:43.889Z,17.65
2023-05-09T21:28:11.918Z,17.53
2023-05-09T21:30:39.962Z,17.53
2023-05-09T21:33:09.423Z,17.56
2023-05-09T21:35:37.542Z,17.46
2023-05-09T21:38:05.668Z,17.52
2023-05-09T21:40:33.857Z,17.50
2023-05-09T21:43:01.884Z,17.46
2023-05-09T21:45:30.237Z,17.40
2023-05-09T21:47:58.263Z,17.40
2023-05-09T21:50:27.575Z,17.36
2023-05-09T21:52:57.668Z,17.34
2023-05-09T21:55:25.834Z,17.24
2023-05-09T21:57:54.235Z,17.27
2023-05-09T22:00:22.848Z,17.30
2023-05-09T22:02:50.884Z,17.14
2023-05-09T22:05:19.115Z,17.13
2023-05-09T22:07:48.544Z,17.02
2023-05-09T22:10:17.011Z,17.09
2023-05-09T22:12:45.259Z,17.10
2023-05-09T22:15:13.346Z,17.14
2023-05-09T22:17:41.575Z,17.03
2023-05-09T22:20:10.606Z,17.00
2023-05-09T22:22:38.918Z,16.97
2023-05-09T22:25:08.743Z,16.97
2023-05-09T22:27:37.077Z,16.96
2023-05-09T22:30:06.189Z,16.96
2023-05-09T22:32:34.524Z,16.84
2023-05-09T22:35:03.013Z,16.78
2023-05-09T22:37:31.605Z,16.84
2023-05-09T22:40:01.415Z,16.73
2023-05-09T22:42:32.105Z,16.69
2023-05-09T22:45:00.286Z,16.78
2023-05-09T22:47:28.294Z,16.68
2023-05-09T22:49:56.440Z,16.70
2023-05-09T22:52:24.338Z,16.69
2023-05-09T22:54:52.265Z,16.76
2023-05-09T22:57:20.737Z,16.73
2023-05-09T22:59:51.319Z,16.63
2023-05-09T23:02:19.453Z,16.53
2023-05-09T23:04:47.532Z,16.53
2023-05-09T23:07:15.934Z,16.54
2023-05-09T23:09:44.296Z,16.54
2023-05-09T23:12:12.556Z,16.49
2023-05-09T23:14:40.531Z,16.52
2023-05-09T23:17:10.211Z,16.41
2023-05-09T23:19:38.359Z,16.47
2023-05-09T23:22:06.281Z,16.51
2023-05-09T23:24:34.246Z,16.37
2023-05-09T23:27:03.152Z,16.41
2023-05-09T23:29:31.110Z,16.38
2023-05-09T23:31:59.024Z,16.26
2023-05-09T23:34:28.915Z,16.30
2023-05-09T23:36:56.826Z,16.37
2023-05-09T23:39:24.714Z,16.34
2023-05-09T23:41:52.827Z,16.36
2023-05-09T23:44:20.894Z,16.22
2023-05-09T23:46:48.831Z,16.16
2023-05-09T23:49:17.122Z,16.07
2023-05-09T23:51:46.648Z,16.07
2023-05-09T23:54:16.649Z,16.13
2023-05-09T23:56:44.759Z,16.09
2023-05-09T23:59:12.710Z,16.03
